Portada
METAR-TAF:

METAR-TAF

Aeroports :

Cajamarca, Perú

latitud: 07-08S, longitud: 078-28W, altitud: 2620 m

Observació

L'informe es va fer fa 13 minuts, a les 19:30 UTC
Vent 4 kt amb direcció variable
Temperatura 21°C
Humitat 40%
Pressió 1024 hPa
Visibilitat 10 km o més
Núvols disperses a una alçada de 2300 ft
Cel ennuvolat a una alçada de 4300 ft

METAR: SPJR 211930Z VRB04KT 9999 SCT023 BKN043 21/07 Q1024

Hora: 14:43 (19:43 UTC)

Pronòstic

L'informe es va fer fa 2 hores i 33 minuts, a les 17:10 UTC
Pronòstic vàlid del 21 a les 18 UTC al 22 a les 18 UTC
Vent 12 kt del Sud/Sud-Est
Visibilitat 10 km o més
Núvols disperses a una alçada de 2300 ft
Cel ennuvolat a una alçada de 4300 ft
A partir de les 21 a les 2300 UTC
Vent 2 kt amb direcció variable
Visibilitat 10 km o més
Núvols disperses a una alçada de 2300 ft
Núvols disperses a una alçada de 4600 ft

TAF: SPJR 211710Z 2118/2218 15012KT 9999 SCT023 BKN043 TX23/2119Z TN06/2211Z FM212300 VRB02KT 9999 SCT023 SCT046

Observacions i pronòstics meteorològics de més de 4000 aeroports (METAR i TAF).

Les estacions disponibles són els punts grocs i vermells al mapa.

Posi el ratolí al punt desitjat per veure el nom de l'estació.

Feu clic per veure les observacions i els pronòstics meteorològics.

Per canviar el mapa: feu clic els botons verds amb una creu de color negre per apropar; al botó verd amb un guió per allunyar la imatge; o en les fletxes verdes per a mapes adjacents.


METAR-TAF: